Time;durP1;ratioP1;P1;durP2;ratioP2;P2;SDS_P1;SDS_P2;PMS_P1;PMS_P2;Temp;Humidity;BMP_temperature;BMP_pressure;BME280_temperature;BME280_humidity;BME280_pressure;Samples;Min_cycle;Max_cycle;Signal;HPM_P1;HPM_P2
2023/03/09 00:00:36;;;;;;;2.77;2.50;;;12.70;71.70;;;;;;5058015;28;21041;-87
2023/03/09 00:03:03;;;;;;;3.00;2.80;;;12.70;71.60;;;;;;5041259;28;20555;-86
2023/03/09 00:05:31;;;;;;;3.20;2.90;;;12.70;71.30;;;;;;5050170;28;20956;-87
2023/03/09 00:07:59;;;;;;;4.03;3.50;;;12.70;71.40;;;;;;5053313;28;20574;-87
2023/03/09 00:10:26;;;;;;;4.00;3.70;;;12.80;71.20;;;;;;5058409;28;20508;-86
2023/03/09 00:12:53;;;;;;;3.33;3.03;;;12.70;71.50;;;;;;5067135;28;20476;-86
2023/03/09 00:15:20;;;;;;;4.37;3.97;;;12.80;70.90;;;;;;5036863;28;20443;-84
2023/03/09 00:17:46;;;;;;;6.60;2.63;;;12.90;70.80;;;;;;5042343;28;20463;-86
2023/03/09 00:20:17;;;;;;;3.10;2.73;;;12.90;70.70;;;;;;5038405;28;20467;-86
2023/03/09 00:22:48;;;;;;;5.80;3.33;;;13.00;70.10;;;;;;5067136;28;20460;-87
2023/03/09 00:25:17;;;;;;;3.13;2.83;;;12.80;70.80;;;;;;5051724;28;20531;-86
2023/03/09 00:27:46;;;;;;;6.20;3.37;;;12.70;71.90;;;;;;5033732;28;20453;-86
2023/03/09 00:30:14;;;;;;;4.30;3.90;;;12.60;71.70;;;;;;5037140;28;20954;-87
2023/03/09 00:32:41;;;;;;;6.93;3.30;;;12.50;73.00;;;;;;5043118;28;20510;-87
2023/03/09 00:35:09;;;;;;;4.20;3.67;;;12.50;73.00;;;;;;5037061;28;20973;-86
2023/03/09 00:37:37;;;;;;;6.20;4.30;;;12.50;72.90;;;;;;5019446;28;20539;-87
2023/03/09 00:40:06;;;;;;;3.87;3.47;;;12.50;73.50;;;;;;5058234;28;20728;-86
2023/03/09 00:42:35;;;;;;;4.23;3.83;;;12.50;73.70;;;;;;5050919;28;20477;-86
2023/03/09 00:45:01;;;;;;;4.60;4.00;;;12.50;74.20;;;;;;5049931;28;20974;-87
2023/03/09 00:47:28;;;;;;;4.57;4.07;;;12.60;74.20;;;;;;5050741;28;20431;-87
2023/03/09 00:49:55;;;;;;;5.67;4.57;;;12.80;73.80;;;;;;5015895;28;20440;-86
2023/03/09 00:52:22;;;;;;;14.90;6.20;;;12.90;73.60;;;;;;5067217;28;20554;-86
2023/03/09 00:54:52;;;;;;;8.83;5.57;;;13.20;72.50;;;;;;5052377;28;20460;-85
2023/03/09 00:57:20;;;;;;;5.33;4.27;;;13.10;72.70;;;;;;5052572;28;20478;-86
2023/03/09 00:59:50;;;;;;;15.93;7.20;;;12.90;73.20;;;;;;5035241;28;20471;-86
2023/03/09 01:02:17;;;;;;;11.23;6.10;;;13.00;73.40;;;;;;5033378;28;20469;-85
2023/03/09 01:04:45;;;;;;;8.30;4.47;;;13.00;73.30;;;;;;5058007;28;20459;-85
2023/03/09 01:07:11;;;;;;;13.27;6.80;;;12.80;73.90;;;;;;5036144;28;20445;-85
2023/03/09 01:09:38;;;;;;;6.57;3.70;;;12.60;75.00;;;;;;5047677;28;20456;-85
2023/03/09 01:12:06;;;;;;;13.67;7.63;;;12.50;75.60;;;;;;5054118;28;20507;-86
2023/03/09 01:14:33;;;;;;;19.60;9.93;;;12.70;74.50;;;;;;5027234;28;20502;-86
2023/03/09 01:17:02;;;;;;;28.67;12.73;;;12.80;74.10;;;;;;5055705;28;20496;-85
2023/03/09 01:19:30;;;;;;;26.00;13.60;;;12.50;74.60;;;;;;5024238;28;20512;-85
2023/03/09 01:21:57;;;;;;;19.77;9.33;;;12.50;75.20;;;;;;5061406;28;20539;-85
2023/03/09 01:24:25;;;;;;;8.07;4.90;;;12.50;74.90;;;;;;5028452;28;20891;-85
2023/03/09 01:26:52;;;;;;;10.80;6.00;;;12.70;74.30;;;;;;5054615;28;20538;-86
2023/03/09 01:29:20;;;;;;;2.03;1.30;;;12.80;73.80;;;;;;5055221;28;20451;-87
2023/03/09 01:31:46;;;;;;;2.13;2.03;;;12.80;73.50;;;;;;5031454;28;20692;-86
2023/03/09 01:34:16;;;;;;;1.53;1.20;;;12.80;73.30;;;;;;5039281;28;21276;-88
2023/03/09 01:36:43;;;;;;;1.27;0.97;;;12.60;72.90;;;;;;5044476;28;20856;-85
2023/03/09 01:39:11;;;;;;;1.00;0.90;;;12.70;73.50;;;;;;5040998;28;20593;-84
2023/03/09 01:41:38;;;;;;;2.47;1.23;;;12.70;72.60;;;;;;5037795;28;20468;-86
2023/03/09 01:44:11;;;;;;;1.30;1.07;;;12.70;73.10;;;;;;5024215;28;20472;-87
2023/03/09 01:46:50;;;;;;;2.77;1.00;;;12.70;73.20;;;;;;5039870;28;20458;-86
2023/03/09 01:49:31;;;;;;;1.63;1.03;;;12.80;72.70;;;;;;5021412;28;20821;-87
2023/03/09 01:52:05;;;;;;;1.13;1.03;;;12.80;72.70;;;;;;5062089;28;20566;-86
2023/03/09 01:54:37;;;;;;;0.90;0.80;;;12.90;71.80;;;;;;5055312;28;20460;-85
2023/03/09 01:57:10;;;;;;;1.00;0.80;;;12.60;72.50;;;;;;5036645;28;20948;-86
2023/03/09 01:59:39;;;;;;;0.90;0.90;;;12.70;72.40;;;;;;5044748;28;20453;-86
2023/03/09 02:02:07;;;;;;;1.03;0.93;;;12.90;72.50;;;;;;5060760;28;20453;-86
2023/03/09 02:04:42;;;;;;;3.90;0.97;;;12.70;72.40;;;;;;5044846;28;20456;-86
2023/03/09 02:07:09;;;;;;;1.10;1.00;;;12.70;72.70;;;;;;5039817;28;20562;-86
2023/03/09 02:09:40;;;;;;;1.10;1.00;;;12.70;72.70;;;;;;5044580;28;20678;-86
2023/03/09 02:12:12;;;;;;;0.80;0.70;;;12.70;73.00;;;;;;5022023;28;20465;-86
2023/03/09 02:14:39;;;;;;;0.70;0.70;;;12.60;73.60;;;;;;5056942;28;20570;-86
2023/03/09 02:17:06;;;;;;;0.80;0.80;;;12.70;73.00;;;;;;5044627;28;20509;-86
2023/03/09 02:19:46;;;;;;;0.80;0.70;;;12.70;72.90;;;;;;5060607;28;20460;-86
2023/03/09 02:22:13;;;;;;;0.70;0.60;;;12.90;72.50;;;;;;5029728;28;20505;-84
2023/03/09 02:24:51;;;;;;;1.23;0.77;;;13.00;71.60;;;;;;5041137;28;20897;-87
2023/03/09 02:27:22;;;;;;;1.00;0.87;;;13.00;72.00;;;;;;5044518;28;20448;-86
2023/03/09 02:29:49;;;;;;;1.43;0.70;;;12.90;72.40;;;;;;5059440;28;20440;-86
2023/03/09 02:32:17;;;;;;;0.73;0.70;;;12.90;72.50;;;;;;5060806;28;20499;-86
2023/03/09 02:34:45;;;;;;;1.00;0.70;;;12.80;72.40;;;;;;5037391;28;20456;-85
2023/03/09 02:37:26;;;;;;;0.77;0.63;;;12.80;72.60;;;;;;5044946;28;20445;-86
2023/03/09 02:39:57;;;;;;;0.90;0.70;;;12.70;72.80;;;;;;5027292;28;20533;-85
2023/03/09 02:42:27;;;;;;;1.60;0.83;;;12.60;73.30;;;;;;5027126;28;20464;-86
2023/03/09 02:44:55;;;;;;;1.03;0.90;;;12.50;74.50;;;;;;5066408;28;21039;-86
2023/03/09 02:47:23;;;;;;;1.10;0.70;;;12.60;74.00;;;;;;5043936;28;20964;-87
2023/03/09 02:49:52;;;;;;;1.60;0.80;;;12.80;73.60;;;;;;5043794;28;20525;-86
2023/03/09 02:52:20;;;;;;;2.60;0.90;;;12.90;73.10;;;;;;5069619;28;20459;-86
2023/03/09 02:54:48;;;;;;;0.80;0.70;;;13.00;72.90;;;;;;5044177;28;20445;-86
2023/03/09 02:57:16;;;;;;;3.80;1.10;;;12.90;72.60;;;;;;5061275;28;20962;-84
2023/03/09 02:59:44;;;;;;;1.20;0.80;;;12.90;73.00;;;;;;5043342;28;20528;-84
2023/03/09 03:02:11;;;;;;;2.10;1.00;;;12.90;73.30;;;;;;5036909;28;20480;-84
2023/03/09 03:04:38;;;;;;;0.97;0.90;;;12.80;73.50;;;;;;5036560;28;20449;-87
2023/03/09 03:07:05;;;;;;;1.20;1.10;;;12.70;74.10;;;;;;5023638;28;20445;-86
2023/03/09 03:09:33;;;;;;;1.03;0.90;;;12.50;74.70;;;;;;5062692;28;20456;-86
2023/03/09 03:12:00;;;;;;;1.40;1.30;;;12.20;76.20;;;;;;5021844;28;20460;-85
2023/03/09 03:14:28;;;;;;;1.00;0.80;;;12.10;76.50;;;;;;5041280;28;20452;-86
2023/03/09 03:16:56;;;;;;;0.90;0.80;;;12.00;75.30;;;;;;5041327;28;20635;-86
2023/03/09 03:19:24;;;;;;;0.97;0.70;;;12.00;75.80;;;;;;5049865;28;21155;-83
2023/03/09 03:21:51;;;;;;;0.80;0.80;;;11.90;75.00;;;;;;5042893;28;21075;-86
2023/03/09 03:24:18;;;;;;;0.73;0.63;;;11.80;76.10;;;;;;5050554;28;20499;-87
2023/03/09 03:26:45;;;;;;;0.93;0.77;;;11.80;74.30;;;;;;5040442;28;20459;-84
2023/03/09 03:29:16;;;;;;;1.43;0.90;;;11.80;74.60;;;;;;5026626;28;20443;-85
2023/03/09 03:31:43;;;;;;;0.80;0.70;;;11.70;74.90;;;;;;5038522;28;20957;-87
2023/03/09 03:34:11;;;;;;;0.87;0.70;;;11.80;75.10;;;;;;5033672;28;20542;-85
2023/03/09 03:36:43;;;;;;;1.10;0.80;;;11.90;74.60;;;;;;5051239;28;20517;-86
2023/03/09 03:39:10;;;;;;;1.00;0.70;;;12.00;73.80;;;;;;5034968;28;20451;-86
2023/03/09 03:41:37;;;;;;;0.80;0.70;;;12.00;74.00;;;;;;5036998;28;20480;-87
2023/03/09 03:44:07;;;;;;;0.90;0.70;;;12.10;73.20;;;;;;5018442;28;20490;-86
2023/03/09 03:46:36;;;;;;;0.80;0.70;;;12.20;72.90;;;;;;5043346;28;20555;-85
2023/03/09 03:49:03;;;;;;;1.00;0.60;;;12.40;72.30;;;;;;5058797;28;20451;-86
2023/03/09 03:51:34;;;;;;;0.80;0.70;;;12.40;72.10;;;;;;5018638;28;20548;-86
2023/03/09 03:54:01;;;;;;;0.70;0.60;;;12.50;71.90;;;;;;5031546;28;21161;-85
2023/03/09 03:56:28;;;;;;;1.27;0.80;;;12.50;71.80;;;;;;5042353;28;20460;-85
2023/03/09 03:58:57;;;;;;;0.80;0.70;;;12.50;71.40;;;;;;5052374;28;20530;-86
2023/03/09 04:01:25;;;;;;;0.80;0.70;;;12.70;71.00;;;;;;5068260;28;20471;-85
2023/03/09 04:03:58;;;;;;;0.77;0.70;;;12.70;70.70;;;;;;5065996;28;20492;-87
2023/03/09 04:06:25;;;;;;;1.20;0.60;;;12.50;70.80;;;;;;5035017;28;20493;-86
2023/03/09 04:08:54;;;;;;;1.00;0.90;;;12.60;70.80;;;;;;5025256;28;20905;-86
2023/03/09 04:11:21;;;;;;;0.90;0.70;;;12.70;70.40;;;;;;5028666;28;20468;-86
2023/03/09 04:13:51;;;;;;;1.00;0.90;;;12.50;70.90;;;;;;5042571;28;20471;-86
2023/03/09 04:16:18;;;;;;;1.50;0.77;;;12.50;70.80;;;;;;5044179;28;20483;-84
2023/03/09 04:18:46;;;;;;;0.90;0.70;;;12.60;70.60;;;;;;5044551;28;20969;-87
2023/03/09 04:21:14;;;;;;;1.50;0.80;;;12.50;70.60;;;;;;5058847;28;20517;-85
2023/03/09 04:23:42;;;;;;;0.80;0.70;;;12.50;70.80;;;;;;5035957;28;20465;-86
2023/03/09 04:26:12;;;;;;;0.77;0.70;;;12.60;70.40;;;;;;5042157;28;20455;-85
2023/03/09 04:28:49;;;;;;;0.97;0.80;;;12.60;70.60;;;;;;5054062;28;20445;-84
2023/03/09 04:31:19;;;;;;;0.90;0.80;;;12.40;70.70;;;;;;5042989;28;20456;-84
2023/03/09 04:33:46;;;;;;;1.20;0.83;;;12.30;72.10;;;;;;5027065;28;20488;-85
2023/03/09 04:36:17;;;;;;;0.80;0.70;;;12.10;73.20;;;;;;5043058;28;20829;-86
2023/03/09 04:38:46;;;;;;;1.30;0.90;;;12.10;73.40;;;;;;5037765;28;20533;-85
2023/03/09 04:41:16;;;;;;;1.10;1.00;;;12.20;73.20;;;;;;5040107;28;20464;-86
2023/03/09 04:43:48;;;;;;;1.17;0.80;;;12.10;73.40;;;;;;5040325;28;20960;-85
2023/03/09 04:46:15;;;;;;;3.33;1.90;;;12.00;73.50;;;;;;5040951;28;20539;-86
2023/03/09 04:48:42;;;;;;;3.27;2.20;;;12.10;74.10;;;;;;5050097;28;20471;-84
2023/03/09 04:51:09;;;;;;;24.23;9.80;;;12.20;73.70;;;;;;5045109;28;20543;-85
2023/03/09 04:53:36;;;;;;;6.60;3.97;;;12.30;73.70;;;;;;5032092;28;20492;-86
2023/03/09 04:56:03;;;;;;;5.40;3.97;;;12.40;73.10;;;;;;5051887;28;20444;-84
2023/03/09 04:58:36;;;;;;;1.70;1.17;;;12.40;73.10;;;;;;5039463;28;20482;-85
2023/03/09 05:01:03;;;;;;;1.93;1.83;;;12.30;73.90;;;;;;5061317;28;20461;-85
2023/03/09 05:03:31;;;;;;;2.37;1.57;;;12.30;74.20;;;;;;5060085;28;20861;-84
2023/03/09 05:05:58;;;;;;;4.83;1.50;;;12.20;75.30;;;;;;5043733;28;20533;-86
2023/03/09 05:08:30;;;;;;;1.20;1.10;;;12.10;75.60;;;;;;5044025;28;20530;-84
2023/03/09 05:10:57;;;;;;;2.20;1.93;;;12.30;75.30;;;;;;5044676;28;20493;-85
2023/03/09 05:13:24;;;;;;;2.03;1.90;;;12.30;74.90;;;;;;5039065;28;20475;-85
2023/03/09 05:15:53;;;;;;;2.80;2.60;;;12.30;74.90;;;;;;5043808;28;20454;-83
2023/03/09 05:18:20;;;;;;;2.30;2.07;;;12.40;74.50;;;;;;5037493;28;20502;-86
2023/03/09 05:20:49;;;;;;;4.13;3.73;;;12.50;74.10;;;;;;5045331;28;20467;-86
2023/03/09 05:23:16;;;;;;;3.80;2.37;;;12.50;73.80;;;;;;5037931;28;20532;-84
2023/03/09 05:25:43;;;;;;;1.80;1.47;;;12.60;73.70;;;;;;5059870;28;20908;-86
2023/03/09 05:28:12;;;;;;;1.73;1.40;;;12.70;72.60;;;;;;5059581;28;20458;-84
2023/03/09 05:30:41;;;;;;;2.00;1.10;;;12.60;72.60;;;;;;5056140;28;20966;-85
2023/03/09 05:33:11;;;;;;;1.50;1.20;;;12.70;72.30;;;;;;5044357;28;20460;-86
2023/03/09 05:35:40;;;;;;;2.47;1.40;;;12.70;72.60;;;;;;5045226;28;21036;-83
2023/03/09 05:38:08;;;;;;;1.43;1.33;;;12.60;73.40;;;;;;5052595;28;21011;-84
2023/03/09 05:40:36;;;;;;;1.40;1.20;;;12.60;73.20;;;;;;5043534;28;20534;-85
2023/03/09 05:43:07;;;;;;;1.40;1.30;;;12.50;73.00;;;;;;5062576;28;20488;-85
2023/03/09 05:45:34;;;;;;;3.00;1.60;;;12.40;73.30;;;;;;5047060;28;20949;-85
2023/03/09 05:48:01;;;;;;;3.07;2.47;;;12.50;73.60;;;;;;5029905;28;20449;-85
2023/03/09 05:50:31;;;;;;;2.60;2.40;;;12.50;73.00;;;;;;5020626;28;20448;-85
2023/03/09 05:52:59;;;;;;;2.97;1.70;;;12.70;72.90;;;;;;5036032;28;20491;-85
2023/03/09 05:55:27;;;;;;;4.03;3.00;;;12.60;72.20;;;;;;5029002;28;20452;-85
2023/03/09 05:57:54;;;;;;;7.00;1.97;;;12.60;72.50;;;;;;5045771;28;20522;-83
2023/03/09 06:00:21;;;;;;;2.70;2.33;;;12.50;72.40;;;;;;5062859;28;20484;-85
2023/03/09 06:02:55;;;;;;;7.03;1.57;;;12.60;72.30;;;;;;5043243;28;20478;-86
2023/03/09 06:05:31;;;;;;;4.10;2.10;;;12.40;72.00;;;;;;5044842;28;20480;-84
2023/03/09 06:07:58;;;;;;;3.90;2.20;;;12.60;71.50;;;;;;5043411;28;20479;-86
2023/03/09 06:10:25;;;;;;;5.37;2.20;;;12.60;71.00;;;;;;5062791;28;20452;-84
2023/03/09 06:12:52;;;;;;;2.83;1.80;;;12.70;71.50;;;;;;5047473;28;20478;-84
2023/03/09 06:15:21;;;;;;;3.70;2.40;;;12.60;70.70;;;;;;5038147;28;20448;-84
2023/03/09 06:17:48;;;;;;;2.37;2.13;;;12.50;71.20;;;;;;5046316;28;20521;-86
2023/03/09 06:20:20;;;;;;;1.77;1.40;;;12.40;71.10;;;;;;5027949;28;20456;-85
2023/03/09 06:22:52;;;;;;;2.10;1.90;;;12.20;71.40;;;;;;5070285;28;21008;-85
2023/03/09 06:25:19;;;;;;;1.77;1.67;;;12.20;71.30;;;;;;5060864;28;20451;-85
2023/03/09 06:27:47;;;;;;;4.30;1.90;;;12.20;70.20;;;;;;5054251;28;21205;-82
2023/03/09 06:30:17;;;;;;;3.53;2.20;;;12.20;70.40;;;;;;5044230;28;20443;-85
2023/03/09 06:32:44;;;;;;;2.20;1.90;;;12.30;71.00;;;;;;5071403;28;20894;-86
2023/03/09 06:35:12;;;;;;;5.47;1.73;;;12.40;70.90;;;;;;5061582;28;20468;-86
2023/03/09 06:37:41;;;;;;;3.80;1.83;;;12.50;70.40;;;;;;5029360;28;20488;-86
2023/03/09 06:40:12;;;;;;;3.50;2.27;;;12.70;70.10;;;;;;5059647;28;20451;-86
2023/03/09 06:42:40;;;;;;;4.03;1.90;;;12.60;68.50;;;;;;5054554;28;20533;-86
2023/03/09 06:45:08;;;;;;;3.83;2.10;;;12.40;69.80;;;;;;5042813;28;20444;-86
2023/03/09 06:47:35;;;;;;;3.60;2.10;;;12.50;70.00;;;;;;5054398;28;21154;-86
2023/03/09 06:50:06;;;;;;;2.53;2.00;;;12.60;69.00;;;;;;5027619;28;20445;-87
2023/03/09 06:52:33;;;;;;;4.27;2.30;;;12.50;68.90;;;;;;5042080;28;20985;-86
2023/03/09 06:55:00;;;;;;;3.43;1.93;;;12.50;70.00;;;;;;5052506;28;20449;-86
2023/03/09 06:57:30;;;;;;;6.73;3.70;;;12.30;69.40;;;;;;5039098;28;20460;-86
2023/03/09 06:59:57;;;;;;;12.53;5.03;;;12.30;70.10;;;;;;5062577;28;20516;-86
2023/03/09 07:02:25;;;;;;;14.83;5.80;;;12.30;70.10;;;;;;5044864;28;20472;-83
2023/03/09 07:04:53;;;;;;;5.93;2.33;;;12.40;71.00;;;;;;5045001;28;20455;-86
2023/03/09 07:07:21;;;;;;;36.37;16.07;;;12.30;69.50;;;;;;5056039;28;20940;-84
2023/03/09 07:09:48;;;;;;;46.43;15.37;;;12.50;69.80;;;;;;5060892;28;20445;-84
2023/03/09 07:12:15;;;;;;;12.13;3.10;;;12.70;69.40;;;;;;5070494;28;20504;-86
2023/03/09 07:14:43;;;;;;;4.63;2.53;;;12.70;68.70;;;;;;5037066;28;20471;-86
2023/03/09 07:17:13;;;;;;;9.00;3.60;;;12.90;68.50;;;;;;5054305;28;20459;-86
2023/03/09 07:19:41;;;;;;;4.47;2.10;;;12.80;69.00;;;;;;5042747;28;20460;-86
2023/03/09 07:22:10;;;;;;;3.80;2.70;;;12.80;68.80;;;;;;5043809;28;20482;-86
2023/03/09 07:24:38;;;;;;;4.93;2.80;;;12.90;69.40;;;;;;5053711;28;20445;-86
2023/03/09 07:27:05;;;;;;;2.53;2.07;;;12.90;70.30;;;;;;5042944;28;20441;-86
2023/03/09 07:29:32;;;;;;;2.73;2.53;;;12.70;69.80;;;;;;5070867;28;20452;-86
2023/03/09 07:32:01;;;;;;;7.30;2.87;;;12.90;69.70;;;;;;5059471;28;20456;-86
2023/03/09 07:34:29;;;;;;;6.63;2.97;;;13.10;69.90;;;;;;5051768;28;20464;-86
2023/03/09 07:36:56;;;;;;;6.37;2.90;;;13.20;69.50;;;;;;5055745;28;20482;-86
2023/03/09 07:39:23;;;;;;;4.03;2.53;;;13.20;69.40;;;;;;5070743;28;20444;-86
2023/03/09 07:41:50;;;;;;;6.40;2.80;;;13.00;69.50;;;;;;5068605;28;20956;-87
2023/03/09 07:44:17;;;;;;;6.23;3.60;;;12.80;70.50;;;;;;5059885;28;20440;-86
2023/03/09 07:46:44;;;;;;;2.90;1.97;;;12.70;71.10;;;;;;5027544;28;20502;-86
2023/03/09 07:49:12;;;;;;;2.13;1.87;;;12.60;71.20;;;;;;5042438;28;20460;-86
2023/03/09 07:51:39;;;;;;;4.83;2.20;;;12.50;71.20;;;;;;5051600;28;20959;-86
2023/03/09 07:54:07;;;;;;;5.53;2.70;;;12.60;72.10;;;;;;5022364;28;20468;-86
2023/03/09 07:56:34;;;;;;;4.00;1.97;;;12.70;72.10;;;;;;5051525;28;20444;-86
2023/03/09 07:59:01;;;;;;;6.27;2.53;;;12.90;71.30;;;;;;5050787;28;20444;-86
2023/03/09 08:01:28;;;;;;;4.80;1.30;;;13.00;70.70;;;;;;5050558;28;20575;-84
2023/03/09 08:03:55;;;;;;;5.50;2.50;;;13.00;70.60;;;;;;5035789;28;20936;-85
2023/03/09 08:06:25;;;;;;;2.03;1.83;;;13.20;70.50;;;;;;5034727;28;20489;-86
2023/03/09 08:08:52;;;;;;;2.17;1.60;;;13.30;69.70;;;;;;5033291;28;20459;-86
2023/03/09 08:11:19;;;;;;;7.47;3.73;;;13.40;69.20;;;;;;5051194;28;20973;-86
2023/03/09 08:13:45;;;;;;;4.63;2.00;;;13.10;68.90;;;;;;5050533;28;20463;-87
2023/03/09 08:16:12;;;;;;;1.87;1.50;;;13.00;70.30;;;;;;5036804;28;20454;-85
2023/03/09 08:18:39;;;;;;;1.47;1.37;;;12.90;70.00;;;;;;5067563;28;20822;-87
2023/03/09 08:21:07;;;;;;;1.73;1.20;;;13.00;70.40;;;;;;5037775;28;20455;-86
2023/03/09 08:23:37;;;;;;;2.00;1.40;;;13.00;70.20;;;;;;5023492;28;20964;-86
2023/03/09 08:26:04;;;;;;;7.03;1.90;;;13.00;69.60;;;;;;5052542;28;20505;-87
2023/03/09 08:28:32;;;;;;;2.10;1.47;;;12.80;70.10;;;;;;5052281;28;20450;-86
2023/03/09 08:30:59;;;;;;;4.30;1.43;;;12.80;69.80;;;;;;5032551;28;20445;-86
2023/03/09 08:33:26;;;;;;;4.47;2.00;;;12.90;70.60;;;;;;5028476;28;20490;-86
2023/03/09 08:35:53;;;;;;;4.73;1.70;;;12.90;70.20;;;;;;5051950;28;20452;-87
2023/03/09 08:38:20;;;;;;;1.30;1.13;;;12.90;69.20;;;;;;5023954;28;20448;-86
2023/03/09 08:40:48;;;;;;;3.47;1.50;;;12.80;70.10;;;;;;5069295;28;20462;-87
2023/03/09 08:43:15;;;;;;;2.40;1.33;;;12.80;71.10;;;;;;5052514;28;20475;-84
2023/03/09 08:45:42;;;;;;;10.23;1.80;;;12.90;70.00;;;;;;5035028;28;20449;-86
2023/03/09 08:48:09;;;;;;;3.80;1.30;;;13.00;69.80;;;;;;5051336;28;20448;-87
2023/03/09 08:50:36;;;;;;;1.90;1.37;;;13.20;69.00;;;;;;5057965;28;20459;-87
2023/03/09 08:53:03;;;;;;;3.47;1.30;;;13.20;68.20;;;;;;5052713;28;20463;-86
2023/03/09 08:55:30;;;;;;;2.50;1.43;;;13.10;69.10;;;;;;5049754;28;20968;-84
2023/03/09 08:57:58;;;;;;;3.60;1.80;;;13.10;69.90;;;;;;5034062;28;20478;-87
2023/03/09 09:00:25;;;;;;;2.13;1.63;;;13.10;70.00;;;;;;5036255;28;20459;-86
2023/03/09 09:02:52;;;;;;;2.97;1.60;;;13.10;70.50;;;;;;5051083;28;21009;-87
2023/03/09 09:05:20;;;;;;;2.70;1.90;;;13.10;69.70;;;;;;5066613;28;20436;-86
2023/03/09 09:07:46;;;;;;;3.73;2.03;;;13.00;70.40;;;;;;5053335;28;20452;-86
2023/03/09 09:10:14;;;;;;;2.70;1.73;;;13.00;70.30;;;;;;5051083;28;21006;-87
2023/03/09 09:12:41;;;;;;;5.83;2.60;;;13.10;69.40;;;;;;5058397;28;20472;-87
2023/03/09 09:15:12;;;;;;;2.53;2.10;;;13.00;69.00;;;;;;5024767;28;20509;-87
2023/03/09 09:17:39;;;;;;;2.07;1.87;;;13.00;70.90;;;;;;5057909;28;20942;-87
2023/03/09 09:20:08;;;;;;;4.17;2.00;;;13.30;70.40;;;;;;5035844;28;20527;-86
2023/03/09 09:22:35;;;;;;;2.13;1.90;;;13.10;70.50;;;;;;5041515;28;20530;-85
2023/03/09 09:25:02;;;;;;;4.07;1.80;;;13.20;70.90;;;;;;5033846;28;20456;-86
2023/03/09 09:27:28;;;;;;;1.73;1.53;;;13.00;69.90;;;;;;5038661;28;20444;-87
2023/03/09 09:29:56;;;;;;;5.20;2.07;;;13.00;71.90;;;;;;5028639;28;20448;-85
2023/03/09 09:32:24;;;;;;;2.80;1.80;;;13.00;71.80;;;;;;5056550;28;20558;-86
2023/03/09 09:34:53;;;;;;;1.47;1.33;;;12.70;71.20;;;;;;5055929;28;20449;-85
2023/03/09 09:37:20;;;;;;;2.50;1.47;;;12.90;72.00;;;;;;5051262;28;20444;-85
2023/03/09 09:39:47;;;;;;;2.50;1.40;;;12.90;71.70;;;;;;5044940;28;20459;-87
2023/03/09 09:42:23;;;;;;;2.33;1.53;;;12.90;72.10;;;;;;5072165;28;20479;-87
2023/03/09 09:44:52;;;;;;;2.77;1.80;;;12.80;72.10;;;;;;5045657;28;20985;-87
2023/03/09 09:47:22;;;;;;;4.20;2.10;;;12.80;72.40;;;;;;5053667;28;20439;-87
2023/03/09 09:49:52;;;;;;;3.17;1.80;;;12.80;72.30;;;;;;5027520;28;20453;-86
2023/03/09 09:52:32;;;;;;;2.07;1.40;;;12.60;73.50;;;;;;5056846;28;20496;-85
2023/03/09 09:55:07;;;;;;;2.60;1.97;;;12.70;74.40;;;;;;5045454;28;20447;-87
2023/03/09 09:57:39;;;;;;;2.10;1.90;;;12.70;74.30;;;;;;5029027;28;20446;-86
2023/03/09 10:00:13;;;;;;;2.43;1.67;;;13.00;73.50;;;;;;5040181;28;20449;-87
2023/03/09 10:02:48;;;;;;;3.57;2.47;;;13.20;72.60;;;;;;5028209;28;20484;-87
2023/03/09 10:05:23;;;;;;;2.17;1.83;;;13.20;71.70;;;;;;5044526;28;20499;-87
2023/03/09 10:07:52;;;;;;;3.47;1.60;;;13.50;70.80;;;;;;5028423;28;20783;-86
2023/03/09 10:10:23;;;;;;;3.73;2.20;;;13.60;70.40;;;;;;5045568;28;20445;-87
2023/03/09 10:12:50;;;;;;;3.63;1.70;;;13.50;69.90;;;;;;5038625;28;20464;-87
2023/03/09 10:15:26;;;;;;;2.80;1.80;;;13.60;70.10;;;;;;5028179;28;20455;-86
2023/03/09 10:17:57;;;;;;;1.80;1.50;;;13.70;69.60;;;;;;5045836;28;20443;-87
2023/03/09 10:20:33;;;;;;;5.33;2.10;;;13.80;68.90;;;;;;5054810;28;20450;-86
2023/03/09 10:23:02;;;;;;;2.70;1.77;;;13.60;68.80;;;;;;5045238;28;20499;-86
2023/03/09 10:25:33;;;;;;;2.50;1.60;;;13.50;69.30;;;;;;5070190;28;20456;-85
2023/03/09 10:28:05;;;;;;;3.97;1.80;;;13.40;69.50;;;;;;5045056;28;20448;-87
2023/03/09 10:30:39;;;;;;;5.20;1.67;;;13.40;69.30;;;;;;5025676;28;20985;-87
2023/03/09 10:33:13;;;;;;;2.87;1.93;;;13.20;70.00;;;;;;5039078;28;20468;-87
2023/03/09 10:35:45;;;;;;;4.07;1.67;;;13.30;70.60;;;;;;5026515;28;20440;-87
2023/03/09 10:38:16;;;;;;;4.30;1.67;;;13.40;69.50;;;;;;5061335;28;20439;-88
2023/03/09 10:40:46;;;;;;;4.87;2.00;;;13.50;69.40;;;;;;5044465;28;20979;-88
2023/03/09 10:43:20;;;;;;;4.60;1.73;;;13.50;69.60;;;;;;5051235;28;20472;-86
2023/03/09 10:45:48;;;;;;;5.40;1.93;;;13.60;68.80;;;;;;5051249;28;20444;-87
2023/03/09 10:48:22;;;;;;;5.17;2.50;;;13.50;69.30;;;;;;5040476;28;20460;-87
2023/03/09 10:50:59;;;;;;;3.90;1.93;;;13.60;69.90;;;;;;5027703;28;20822;-87
2023/03/09 10:53:32;;;;;;;3.83;2.27;;;13.70;69.00;;;;;;5055182;28;21057;-87
2023/03/09 10:56:05;;;;;;;2.67;1.63;;;13.80;69.30;;;;;;5041166;28;20456;-85
2023/03/09 10:58:32;;;;;;;6.23;2.43;;;13.90;67.90;;;;;;5056104;28;20871;-87
2023/03/09 11:01:03;;;;;;;6.60;3.07;;;14.00;67.80;;;;;;5050310;28;20525;-86
2023/03/09 11:03:38;;;;;;;5.90;1.50;;;14.00;68.10;;;;;;5061776;28;20507;-86
2023/03/09 11:06:22;;;;;;;6.90;2.73;;;14.00;66.80;;;;;;5061724;28;20447;-86
2023/03/09 11:08:56;;;;;;;4.17;2.30;;;13.90;68.60;;;;;;5024932;28;20551;-88
2023/03/09 11:11:26;;;;;;;10.63;2.07;;;14.00;68.40;;;;;;5068917;28;20458;-87
2023/03/09 11:13:54;;;;;;;13.20;2.70;;;14.20;67.90;;;;;;5028415;28;20463;-87
2023/03/09 11:16:23;;;;;;;8.93;2.57;;;14.10;67.00;;;;;;5021274;28;20460;-87
2023/03/09 11:19:06;;;;;;;10.63;4.33;;;14.10;68.00;;;;;;5058620;28;20461;-88
2023/03/09 11:21:35;;;;;;;24.83;10.70;;;14.30;67.30;;;;;;5038015;28;20456;-86
2023/03/09 11:24:03;;;;;;;12.50;5.53;;;14.30;68.20;;;;;;5025967;28;20563;-87
2023/03/09 11:26:35;;;;;;;35.13;16.10;;;14.40;67.20;;;;;;5022485;28;20463;-88
2023/03/09 11:29:14;;;;;;;28.03;11.17;;;14.60;66.70;;;;;;5024624;28;20451;-87
2023/03/09 11:31:43;;;;;;;25.87;10.77;;;14.50;65.50;;;;;;5042292;28;20474;-87
2023/03/09 11:34:15;;;;;;;78.80;30.47;;;14.50;65.90;;;;;;5050884;28;20668;-88
2023/03/09 11:36:50;;;;;;;9.80;5.10;;;14.70;65.90;;;;;;5038171;28;20471;-88
2023/03/09 11:39:21;;;;;;;5.10;2.90;;;14.80;65.40;;;;;;5036488;28;20509;-86
2023/03/09 11:41:51;;;;;;;15.77;5.87;;;15.00;64.50;;;;;;5060325;28;21012;-87
2023/03/09 11:44:25;;;;;;;34.27;13.10;;;14.90;64.40;;;;;;5043935;28;20490;-88
2023/03/09 11:46:57;;;;;;;25.90;11.37;;;14.90;64.80;;;;;;5045103;28;20456;-87
2023/03/09 11:49:27;;;;;;;16.30;8.20;;;14.60;65.30;;;;;;5039143;28;21017;-87
2023/03/09 11:51:58;;;;;;;10.17;5.60;;;14.50;65.80;;;;;;5051594;28;20981;-88
2023/03/09 11:54:30;;;;;;;3.20;1.83;;;14.50;66.40;;;;;;5053540;28;20994;-87
2023/03/09 11:57:01;;;;;;;2.73;1.90;;;14.50;65.90;;;;;;5026914;28;20817;-84
2023/03/09 11:59:36;;;;;;;10.80;4.13;;;14.70;65.40;;;;;;5070341;28;20501;-88
2023/03/09 12:02:14;;;;;;;8.80;3.03;;;14.70;66.00;;;;;;5043037;28;20516;-87
2023/03/09 12:04:45;;;;;;;3.40;2.10;;;14.60;65.20;;;;;;5027826;28;20459;-88
2023/03/09 12:07:20;;;;;;;3.00;1.77;;;14.60;65.80;;;;;;5052459;28;20540;-87
2023/03/09 12:09:55;;;;;;;4.23;1.90;;;14.70;65.80;;;;;;5053004;28;20448;-87
2023/03/09 12:12:33;;;;;;;3.37;2.73;;;14.70;66.30;;;;;;5045006;28;20491;-86
2023/03/09 12:15:04;;;;;;;3.53;1.70;;;14.70;66.10;;;;;;5041809;28;20433;-88
2023/03/09 12:17:38;;;;;;;4.43;2.10;;;14.60;66.00;;;;;;5026423;28;20443;-87
2023/03/09 12:20:06;;;;;;;2.50;1.33;;;14.80;65.90;;;;;;5053243;28;21009;-88
2023/03/09 12:22:38;;;;;;;2.13;1.87;;;14.90;66.30;;;;;;5037080;28;20478;-86
2023/03/09 12:25:07;;;;;;;2.43;1.50;;;15.10;66.10;;;;;;5067961;28;21022;-88
2023/03/09 12:27:36;;;;;;;2.27;1.67;;;15.30;64.70;;;;;;5027742;28;20447;-89
2023/03/09 12:30:19;;;;;;;3.93;2.17;;;15.50;64.00;;;;;;5042296;28;20452;-87
2023/03/09 12:32:46;;;;;;;2.27;1.47;;;15.40;64.20;;;;;;5047192;28;20460;-88
2023/03/09 12:35:56;;;;;;;2.73;1.93;;;15.20;63.00;;;;;;5057054;28;20448;-85
2023/03/09 12:38:27;;;;;;;2.10;1.90;;;15.10;63.70;;;;;;5041479;28;20496;-87
2023/03/09 12:40:54;;;;;;;3.40;3.07;;;15.00;64.50;;;;;;5053618;28;20509;-88
2023/03/09 12:43:49;;;;;;;2.00;1.83;;;14.90;64.60;;;;;;5023048;28;21079;-88
2023/03/09 12:46:55;;;;;;;3.70;1.27;;;15.10;64.70;;;;;;5059446;28;20457;-87
2023/03/09 12:49:26;;;;;;;5.67;1.80;;;15.10;63.10;;;;;;5053902;28;20841;-86
2023/03/09 12:52:15;;;;;;;5.53;2.03;;;15.00;63.60;;;;;;5034301;28;20808;-87
2023/03/09 12:54:43;;;;;;;2.20;1.67;;;15.20;62.30;;;;;;5070551;28;20440;-87
2023/03/09 12:57:19;;;;;;;5.90;1.67;;;15.20;63.40;;;;;;5026977;28;20440;-88